createdAt,value
2022-09-14T00:00:43.506Z,22.70
2022-09-14T00:06:11.588Z,22.70
2022-09-14T00:11:16.131Z,22.80
2022-09-14T00:16:26.516Z,22.80
2022-09-14T00:21:30.722Z,22.80
2022-09-14T00:26:34.264Z,22.80
2022-09-14T00:31:39.681Z,22.80
2022-09-14T00:36:48.429Z,22.80
2022-09-14T00:41:53.420Z,22.80
2022-09-14T00:47:00.861Z,22.90
2022-09-14T00:52:13.465Z,22.90
2022-09-14T00:57:19.008Z,22.90
2022-09-14T01:02:26.099Z,22.90
2022-09-14T01:07:30.163Z,22.90
2022-09-14T01:12:39.822Z,23.00
2022-09-14T01:17:50.300Z,23.00
2022-09-14T01:23:08.686Z,23.00
2022-09-14T01:28:43.801Z,23.00
2022-09-14T01:33:58.042Z,23.00
2022-09-14T01:39:02.977Z,23.00
2022-09-14T01:44:15.548Z,23.00
2022-09-14T01:49:49.345Z,23.00
2022-09-14T01:55:20.612Z,23.10
2022-09-14T02:00:24.544Z,23.10
2022-09-14T02:05:41.374Z,23.10
2022-09-14T02:10:44.989Z,23.10
2022-09-14T02:15:48.592Z,23.10
2022-09-14T02:21:00.534Z,23.10
2022-09-14T02:26:05.069Z,23.10
2022-09-14T02:31:23.378Z,23.10
2022-09-14T02:36:49.624Z,23.10
2022-09-14T02:42:00.556Z,23.00
2022-09-14T02:47:05.569Z,23.00
2022-09-14T02:52:18.558Z,23.00
2022-09-14T02:57:21.994Z,23.00
2022-09-14T03:02:25.636Z,23.00
2022-09-14T03:07:29.211Z,23.00
2022-09-14T03:12:32.630Z,23.00
2022-09-14T03:17:36.052Z,23.00
2022-09-14T03:22:50.264Z,22.90
2022-09-14T03:28:00.489Z,22.90
2022-09-14T03:33:04.826Z,23.00
2022-09-14T03:38:08.962Z,23.00
2022-09-14T03:43:18.735Z,22.90
2022-09-14T03:48:23.812Z,22.90
2022-09-14T03:53:28.226Z,22.90
2022-09-14T03:58:32.565Z,22.90
2022-09-14T04:03:36.830Z,22.90
2022-09-14T04:08:51.701Z,22.90
2022-09-14T04:14:01.047Z,22.90
2022-09-14T04:19:08.159Z,22.90
2022-09-14T04:24:16.513Z,22.90
2022-09-14T04:29:21.010Z,22.90
2022-09-14T04:34:25.769Z,22.90
2022-09-14T04:39:29.383Z,22.90
2022-09-14T04:44:32.903Z,22.80
2022-09-14T04:49:36.427Z,22.90
2022-09-14T04:54:40.050Z,22.80
2022-09-14T04:59:43.568Z,22.80
2022-09-14T05:04:46.992Z,22.90
2022-09-14T05:09:50.817Z,22.80
2022-09-14T05:14:54.231Z,22.90
2022-09-14T05:19:59.835Z,22.80
2022-09-14T05:25:03.744Z,22.90
2022-09-14T05:30:08.417Z,22.90
2022-09-14T05:35:12.000Z,22.90
2022-09-14T05:40:15.554Z,22.80
2022-09-14T05:45:19.144Z,22.90
2022-09-14T05:50:23.585Z,22.90
2022-09-14T05:55:27.723Z,22.90
2022-09-14T06:00:32.719Z,22.90
2022-09-14T06:05:36.671Z,23.00
2022-09-14T06:10:41.048Z,23.00
2022-09-14T06:15:44.570Z,23.00
2022-09-14T06:20:52.496Z,23.00
2022-09-14T06:25:57.450Z,23.00
2022-09-14T06:31:03.602Z,23.00
2022-09-14T06:36:12.472Z,23.00
2022-09-14T06:41:18.713Z,23.00
2022-09-14T06:46:25.579Z,23.00
2022-09-14T06:51:30.399Z,23.00
2022-09-14T06:56:36.475Z,23.10
2022-09-14T07:01:40.512Z,23.10
2022-09-14T07:06:49.934Z,23.00
2022-09-14T07:11:54.919Z,23.00
2022-09-14T07:16:58.439Z,22.90
2022-09-14T07:22:02.573Z,23.00
2022-09-14T07:27:06.299Z,23.00
2022-09-14T07:32:09.820Z,23.00
2022-09-14T07:37:13.444Z,23.00
2022-09-14T07:42:20.034Z,23.00
2022-09-14T07:47:23.782Z,22.90
2022-09-14T07:52:27.550Z,23.00
2022-09-14T07:57:54.658Z,23.00
2022-09-14T08:02:56.453Z,23.00
2022-09-14T08:08:00.153Z,23.00
2022-09-14T08:13:04.246Z,23.00
2022-09-14T08:18:07.604Z,23.00
2022-09-14T08:23:12.062Z,23.00
2022-09-14T08:28:15.569Z,23.00
2022-09-14T08:33:18.984Z,23.00
2022-09-14T08:38:22.502Z,23.00
2022-09-14T08:43:27.643Z,23.00
2022-09-14T08:48:36.083Z,23.10
2022-09-14T08:53:42.117Z,23.10
2022-09-14T08:59:10.357Z,23.10
2022-09-14T09:04:40.382Z,23.10
2022-09-14T09:09:50.436Z,23.10
2022-09-14T09:14:58.271Z,23.20
2022-09-14T09:20:24.048Z,23.20
2022-09-14T09:25:42.971Z,23.20
2022-09-14T09:30:47.314Z,23.10
2022-09-14T09:35:51.738Z,23.10
2022-09-14T09:41:06.276Z,23.20
2022-09-14T09:46:11.736Z,23.10
2022-09-14T09:51:34.038Z,23.20
2022-09-14T09:56:41.347Z,23.20
2022-09-14T10:01:48.978Z,23.20
2022-09-14T10:06:54.569Z,23.20
2022-09-14T10:12:03.271Z,23.20
2022-09-14T10:17:23.262Z,23.20
2022-09-14T10:22:31.696Z,23.20
2022-09-14T10:27:43.405Z,23.20
2022-09-14T10:33:01.414Z,23.20
2022-09-14T10:38:16.291Z,23.20
2022-09-14T10:43:50.456Z,23.20
2022-09-14T10:49:25.008Z,23.20
2022-09-14T10:54:50.403Z,23.20
2022-09-14T11:00:11.340Z,23.20
2022-09-14T11:05:24.798Z,23.20
2022-09-14T11:10:44.458Z,23.20
2022-09-14T11:15:53.748Z,23.20
2022-09-14T11:21:23.533Z,23.20
2022-09-14T11:26:42.070Z,23.20
2022-09-14T11:32:10.195Z,23.20
2022-09-14T11:37:21.165Z,23.20
2022-09-14T11:42:32.931Z,23.20
2022-09-14T11:47:43.722Z,23.20
2022-09-14T11:52:57.069Z,23.30
2022-09-14T11:58:13.973Z,23.30
2022-09-14T12:03:21.194Z,23.30
2022-09-14T12:08:29.644Z,23.30
2022-09-14T12:13:34.521Z,23.30
2022-09-14T12:18:42.857Z,23.30
2022-09-14T12:23:52.510Z,23.30
2022-09-14T12:29:06.584Z,23.30
2022-09-14T12:34:22.070Z,23.30
2022-09-14T12:39:30.785Z,23.30
2022-09-14T12:44:41.804Z,23.30
2022-09-14T12:49:46.342Z,23.40
2022-09-14T12:55:13.717Z,23.30
2022-09-14T13:00:25.841Z,23.40
2022-09-14T13:05:33.713Z,23.40
2022-09-14T13:10:40.237Z,23.40
2022-09-14T13:15:56.847Z,23.40
2022-09-14T13:21:04.732Z,23.40
2022-09-14T13:26:13.375Z,23.40
2022-09-14T13:32:01.014Z,23.40
2022-09-14T13:37:16.449Z,23.40
2022-09-14T13:42:22.036Z,23.40
2022-09-14T13:47:30.100Z,23.40
2022-09-14T13:53:01.161Z,23.40
2022-09-14T13:58:08.112Z,23.40
2022-09-14T14:03:31.547Z,23.40
2022-09-14T14:08:40.394Z,23.40
2022-09-14T14:13:47.186Z,23.40
2022-09-14T14:18:57.679Z,23.40
2022-09-14T14:24:28.108Z,23.30
2022-09-14T14:29:36.531Z,23.20
2022-09-14T14:34:46.194Z,23.10
2022-09-14T14:39:50.496Z,23.10
2022-09-14T14:44:54.872Z,23.10
2022-09-14T14:50:10.062Z,23.10
2022-09-14T14:55:28.575Z,23.00
2022-09-14T15:00:49.735Z,23.00
2022-09-14T15:06:27.357Z,23.10
2022-09-14T15:11:49.000Z,23.00
2022-09-14T15:17:08.140Z,23.00
2022-09-14T15:28:25.342Z,23.20
2022-09-14T15:33:43.705Z,23.20
2022-09-14T15:38:47.990Z,23.20
2022-09-14T15:43:59.408Z,23.30
2022-09-14T15:49:19.826Z,23.50
2022-09-14T15:54:31.988Z,23.50
2022-09-14T15:59:39.019Z,23.50
2022-09-14T16:04:43.103Z,23.50
2022-09-14T16:09:55.043Z,23.50
2022-09-14T16:15:04.571Z,23.50
2022-09-14T16:20:12.533Z,23.40
2022-09-14T16:25:17.503Z,23.40
2022-09-14T16:30:24.106Z,23.50
2022-09-14T16:35:28.785Z,23.50
2022-09-14T16:40:44.332Z,23.50
2022-09-14T16:46:25.513Z,23.50
2022-09-14T16:51:44.860Z,23.50
2022-09-14T16:57:27.310Z,23.40
2022-09-14T17:02:39.870Z,23.50
2022-09-14T17:07:47.874Z,23.40
2022-09-14T17:12:55.687Z,23.40
2022-09-14T17:18:01.145Z,23.40
2022-09-14T17:23:08.048Z,23.40
2022-09-14T17:28:18.460Z,23.40
2022-09-14T17:33:30.324Z,23.30
2022-09-14T17:38:40.198Z,23.30
2022-09-14T17:43:52.470Z,23.30
2022-09-14T17:49:16.091Z,23.40
2022-09-14T17:54:39.259Z,23.40
2022-09-14T18:00:21.979Z,23.50
2022-09-14T18:05:44.555Z,23.50
2022-09-14T18:16:59.886Z,23.60
2022-09-14T18:22:27.717Z,23.50
2022-09-14T18:28:02.751Z,23.60
2022-09-14T18:33:33.642Z,23.60
2022-09-14T18:38:41.707Z,23.60
2022-09-14T18:43:51.033Z,23.60
2022-09-14T18:49:17.309Z,23.50
2022-09-14T18:54:27.796Z,23.50
2022-09-14T18:59:41.854Z,23.50
2022-09-14T19:04:59.901Z,23.50
2022-09-14T19:10:16.273Z,23.50
2022-09-14T19:15:32.707Z,23.50
2022-09-14T19:21:07.017Z,23.50
2022-09-14T19:26:21.134Z,23.40
2022-09-14T19:31:38.410Z,23.50
2022-09-14T19:36:47.901Z,23.40
2022-09-14T19:41:54.602Z,23.40
2022-09-14T19:46:59.006Z,23.40
2022-09-14T19:52:05.629Z,23.40
2022-09-14T19:57:09.249Z,23.40
2022-09-14T20:02:13.118Z,23.30
2022-09-14T20:07:17.209Z,23.30
2022-09-14T20:12:20.831Z,23.30
2022-09-14T20:17:24.557Z,23.30
2022-09-14T20:22:29.536Z,23.40
2022-09-14T20:27:36.101Z,23.40
2022-09-14T20:32:42.902Z,23.40
2022-09-14T20:37:47.742Z,23.50
2022-09-14T20:42:51.370Z,23.50
2022-09-14T20:47:55.044Z,23.50
2022-09-14T20:52:58.726Z,23.50
2022-09-14T20:58:07.767Z,23.50
2022-09-14T21:03:13.340Z,23.60
2022-09-14T21:08:19.374Z,23.60
2022-09-14T21:13:23.240Z,23.60
2022-09-14T21:18:27.075Z,23.60
2022-09-14T21:23:31.581Z,23.60
2022-09-14T21:28:37.019Z,23.60
2022-09-14T21:33:42.978Z,23.60
2022-09-14T21:38:57.118Z,23.60
2022-09-14T21:44:00.841Z,23.60
2022-09-14T21:49:05.281Z,23.60
2022-09-14T21:54:12.526Z,23.60
2022-09-14T21:59:20.772Z,23.60
2022-09-14T22:04:25.677Z,23.60
2022-09-14T22:09:29.298Z,23.60
2022-09-14T22:14:33.539Z,23.60
2022-09-14T22:19:40.330Z,23.60
2022-09-14T22:24:44.057Z,23.60
2022-09-14T22:29:47.885Z,23.60
2022-09-14T22:34:56.427Z,23.60
2022-09-14T22:40:01.532Z,23.60
2022-09-14T22:45:05.536Z,23.60
2022-09-14T22:50:09.642Z,23.50
2022-09-14T22:55:15.718Z,23.60
2022-09-14T23:00:19.342Z,23.50
2022-09-14T23:05:22.962Z,23.50
2022-09-14T23:10:29.973Z,23.50
2022-09-14T23:15:38.367Z,23.50
2022-09-14T23:20:44.169Z,23.50
2022-09-14T23:25:48.509Z,23.50
2022-09-14T23:30:53.829Z,23.50
2022-09-14T23:35:58.005Z,23.50
2022-09-14T23:41:02.037Z,23.50
2022-09-14T23:46:05.789Z,23.50
2022-09-14T23:51:13.410Z,23.50
2022-09-14T23:56:17.511Z,23.40
